Time;durP1;ratioP1;P1;durP2;ratioP2;P2;SDS_P1;SDS_P2;PMS_P1;PMS_P2;Temp;Humidity;BMP_temperature;BMP_pressure;BME280_temperature;BME280_humidity;BME280_pressure;Samples;Min_cycle;Max_cycle;Signal;HPM_P1;HPM_P2
2023/06/20 00:00:07;;;;;;;29.30;26.20;;;;;;;15.71;100.00;101456.66;4975939;28;20977;-47
2023/06/20 00:02:35;;;;;;;29.20;26.00;;;;;;;15.69;100.00;101453.34;4975897;28;20451;-45
2023/06/20 00:05:05;;;;;;;27.13;24.37;;;;;;;15.64;100.00;101456.69;4975442;28;20485;-45
2023/06/20 00:07:33;;;;;;;32.40;25.90;;;;;;;15.59;100.00;101459.16;4975721;28;20463;-45
2023/06/20 00:10:01;;;;;;;29.40;25.07;;;;;;;15.54;100.00;101455.47;4975754;28;20971;-50
2023/06/20 00:12:28;;;;;;;28.60;25.77;;;;;;;15.47;100.00;101460.88;4975560;28;20964;-50
2023/06/20 00:14:56;;;;;;;29.30;26.17;;;;;;;15.43;100.00;101473.03;4975084;28;21075;-47
2023/06/20 00:17:25;;;;;;;32.50;28.50;;;;;;;15.35;100.00;101474.09;4975560;28;20919;-44
2023/06/20 00:19:53;;;;;;;28.23;25.23;;;;;;;15.29;100.00;101471.44;4975439;28;20467;-47
2023/06/20 00:22:22;;;;;;;34.27;30.37;;;;;;;15.22;100.00;101471.44;4975427;28;20844;-44
2023/06/20 00:24:50;;;;;;;30.53;27.30;;;;;;;15.18;100.00;101478.25;4975052;28;20463;-43
2023/06/20 00:27:18;;;;;;;31.37;26.30;;;;;;;15.12;100.00;101478.25;4971292;28;20440;-43
2023/06/20 00:29:46;;;;;;;23.37;21.00;;;;;;;15.06;100.00;101481.78;4973822;28;20512;-45
2023/06/20 00:32:14;;;;;;;27.70;24.90;;;;;;;15.00;100.00;101482.59;4975099;28;20463;-43
2023/06/20 00:34:42;;;;;;;26.80;24.13;;;;;;;14.95;100.00;101480.56;4974386;28;20546;-46
2023/06/20 00:37:09;;;;;;;26.73;23.87;;;;;;;14.89;100.00;101474.16;4975081;28;20467;-46
2023/06/20 00:39:38;;;;;;;28.53;24.70;;;;;;;14.87;100.00;101484.25;4975122;28;20494;-49
2023/06/20 00:42:16;;;;;;;23.13;20.63;;;;;;;14.83;100.00;101485.72;4975254;28;20473;-46
2023/06/20 00:44:44;;;;;;;24.57;21.97;;;;;;;14.83;100.00;101488.41;4974560;28;20462;-45
2023/06/20 00:47:12;;;;;;;26.97;24.20;;;;;;;14.78;100.00;101479.31;4975327;28;20435;-45
2023/06/20 00:49:40;;;;;;;245.07;68.07;;;;;;;14.77;100.00;101477.66;4974807;28;20454;-47
2023/06/20 00:52:08;;;;;;;27.23;24.13;;;;;;;14.76;100.00;101471.47;4975072;28;20447;-44
2023/06/20 00:54:36;;;;;;;28.63;25.80;;;;;;;14.77;100.00;101465.06;4974046;28;20466;-45
2023/06/20 00:57:06;;;;;;;28.97;25.27;;;;;;;14.78;100.00;101464.00;4975123;28;20513;-46
2023/06/20 00:59:33;;;;;;;35.10;27.97;;;;;;;14.84;100.00;101465.06;4974722;28;20455;-44
2023/06/20 01:02:03;;;;;;;31.07;27.43;;;;;;;14.86;100.00;101469.19;4974789;28;20442;-43
2023/06/20 01:04:31;;;;;;;32.90;28.17;;;;;;;14.89;100.00;101471.47;4974326;28;20876;-45
2023/06/20 01:07:07;;;;;;;29.93;26.73;;;;;;;14.95;100.00;101462.59;4974832;28;20505;-44
2023/06/20 01:09:44;;;;;;;34.63;30.83;;;;;;;14.99;100.00;101457.63;4974548;28;20979;-44
2023/06/20 01:12:21;;;;;;;45.27;29.63;;;;;;;15.04;100.00;101465.06;4974702;28;20445;-46
2023/06/20 01:14:57;;;;;;;31.43;27.73;;;;;;;15.07;100.00;101464.63;4974160;28;20493;-44
2023/06/20 01:17:32;;;;;;;42.07;33.77;;;;;;;15.08;100.00;101460.91;4974436;28;20557;-46
2023/06/20 01:20:05;;;;;;;42.67;30.70;;;;;;;15.08;100.00;101463.59;4974315;28;20462;-49
2023/06/20 01:22:43;;;;;;;45.80;32.70;;;;;;;15.12;100.00;101467.50;4974465;28;20489;-44
2023/06/20 01:25:20;;;;;;;56.90;33.50;;;;;;;15.16;100.00;101471.44;4973852;28;20478;-46
2023/06/20 01:27:56;;;;;;;43.87;30.97;;;;;;;15.21;100.00;101463.56;4974403;28;20435;-43
2023/06/20 01:30:33;;;;;;;59.27;34.63;;;;;;;15.24;100.00;101471.22;4974398;28;20446;-47
2023/06/20 01:33:05;;;;;;;51.07;34.07;;;;;;;15.28;100.00;101475.16;4973733;28;20470;-47
2023/06/20 01:35:35;;;;;;;61.97;34.67;;;;;;;15.30;100.00;101467.69;4974113;28;20805;-49
2023/06/20 01:38:08;;;;;;;41.63;30.70;;;;;;;15.33;100.00;101470.78;4973679;28;20484;-44
2023/06/20 01:40:37;;;;;;;121.97;113.20;;;;;;;15.37;100.00;101472.03;4974027;28;20522;-47
2023/06/20 01:43:07;;;;;;;39.60;28.00;;;;;;;15.37;100.00;101477.41;4973253;28;20439;-43
2023/06/20 01:45:39;;;;;;;73.43;32.37;;;;;;;15.39;100.00;101469.94;4974084;28;20504;-47
2023/06/20 01:48:09;;;;;;;121.80;34.83;;;;;;;15.41;100.00;101481.31;4973830;28;20473;-45
2023/06/20 01:50:39;;;;;;;97.53;36.57;;;;;;;15.44;100.00;101477.41;4974110;28;20411;-43
2023/06/20 01:53:09;;;;;;;81.33;30.73;;;;;;;15.47;100.00;101479.69;4973433;28;20842;-44
2023/06/20 01:55:41;;;;;;;80.83;34.60;;;;;;;15.50;100.00;101480.06;4973744;28;20513;-47
2023/06/20 01:58:10;;;;;;;142.97;42.87;;;;;;;15.52;100.00;101479.06;4973809;28;20860;-43
2023/06/20 02:00:38;;;;;;;115.30;35.70;;;;;;;15.57;100.00;101465.78;4973963;28;20438;-44
2023/06/20 02:03:08;;;;;;;74.13;31.77;;;;;;;15.61;100.00;101467.03;4973051;28;20458;-44
2023/06/20 02:05:38;;;;;;;289.40;46.80;;;;;;;15.61;100.00;101473.25;4973943;28;20489;-44
2023/06/20 02:08:08;;;;;;;59.17;30.53;;;;;;;15.62;100.00;101466.81;4972540;28;20542;-44
2023/06/20 02:10:36;;;;;;;118.17;35.03;;;;;;;15.62;100.00;101472.19;4973511;28;20501;-45
2023/06/20 02:13:04;;;;;;;82.70;31.23;;;;;;;15.63;100.00;101475.69;4973167;28;20824;-44
2023/06/20 02:15:34;;;;;;;137.27;37.20;;;;;;;15.58;100.00;101481.72;4973369;28;20435;-44
2023/06/20 02:18:03;;;;;;;37.90;28.40;;;;;;;15.61;100.00;101472.41;4973327;28;20474;-45
2023/06/20 02:20:31;;;;;;;64.13;28.80;;;;;;;15.58;100.00;101468.28;4973274;28;20497;-47
2023/06/20 02:23:00;;;;;;;223.60;37.40;;;;;;;15.51;100.00;101467.47;4972865;28;20443;-44
2023/06/20 02:25:33;;;;;;;82.53;28.50;;;;;;;15.48;100.00;101467.88;4973284;28;20463;-45
2023/06/20 02:28:03;;;;;;;100.80;27.90;;;;;;;15.46;100.00;101470.78;4973341;28;20782;-43
2023/06/20 02:30:34;;;;;;;140.97;32.77;;;;;;;15.40;100.00;101474.31;4973123;28;20438;-46
2023/06/20 02:33:05;;;;;;;55.33;25.30;;;;;;;15.37;100.00;101471.19;4972327;28;20466;-47
2023/06/20 02:35:34;;;;;;;105.37;31.47;;;;;;;15.33;100.00;101468.09;4973366;28;20427;-47
2023/06/20 02:38:04;;;;;;;189.37;37.27;;;;;;;15.31;100.00;101470.19;4972642;28;20976;-44
2023/06/20 02:40:33;;;;;;;207.23;39.23;;;;;;;15.33;100.00;101472.66;4972844;28;20841;-45
2023/06/20 02:43:00;;;;;;;257.27;43.37;;;;;;;15.32;100.00;101471.81;4972071;28;20521;-50
2023/06/20 02:45:28;;;;;;;82.77;29.37;;;;;;;15.34;100.00;101475.13;4972814;28;20850;-49
2023/06/20 02:48:10;;;;;;;77.13;27.33;;;;;;;15.34;100.00;101469.75;4972844;28;20490;-44
2023/06/20 02:50:45;;;;;;;93.63;30.23;;;;;;;15.34;100.00;101469.75;4973300;28;20790;-45
2023/06/20 02:53:22;;;;;;;88.07;30.00;;;;;;;15.32;100.00;101471.00;4972478;28;20429;-48
2023/06/20 02:55:58;;;;;;;96.63;28.87;;;;;;;15.29;100.00;101474.13;4972924;28;20881;-46
2023/06/20 02:58:27;;;;;;;120.47;31.30;;;;;;;15.30;100.00;101475.75;4972939;28;20513;-46
2023/06/20 03:00:59;;;;;;;70.57;27.07;;;;;;;15.27;100.00;101485.06;4973051;28;20825;-45
2023/06/20 03:03:31;;;;;;;39.80;26.80;;;;;;;15.27;100.00;101490.44;4972009;28;20993;-44
2023/06/20 03:05:59;;;;;;;34.43;23.10;;;;;;;15.28;100.00;101491.28;4973228;28;20419;-47
2023/06/20 03:08:29;;;;;;;29.30;21.80;;;;;;;15.26;100.00;101480.72;4972638;28;20459;-48
2023/06/20 03:10:59;;;;;;;38.00;22.00;;;;;;;15.28;100.00;101483.22;4972912;28;20443;-49
2023/06/20 03:13:28;;;;;;;34.17;22.30;;;;;;;15.29;100.00;101484.88;4972654;28;20459;-43
2023/06/20 03:15:55;;;;;;;27.53;23.30;;;;;;;15.31;100.00;101483.63;4972846;28;20427;-47
2023/06/20 03:18:24;;;;;;;21.37;19.23;;;;;;;15.33;100.00;101486.09;4973694;28;20478;-44
2023/06/20 03:20:52;;;;;;;30.53;20.80;;;;;;;15.34;100.00;101479.69;4977125;28;20857;-47
2023/06/20 03:23:19;;;;;;;57.27;24.70;;;;;;;15.35;100.00;101475.97;4976287;28;20541;-44
2023/06/20 03:25:47;;;;;;;24.53;21.30;;;;;;;15.42;100.00;101476.75;4976489;28;20983;-45
2023/06/20 03:28:16;;;;;;;52.57;25.97;;;;;;;15.48;100.00;101474.09;4964725;28;20982;-43
2023/06/20 03:30:44;;;;;;;32.50;24.50;;;;;;;15.52;100.00;101479.06;4974759;28;20440;-46
2023/06/20 03:33:12;;;;;;;27.47;23.90;;;;;;;15.61;100.00;101475.94;4975833;28;20438;-46
2023/06/20 03:35:40;;;;;;;43.60;26.03;;;;;;;15.67;100.00;101464.31;4976280;28;20430;-46
2023/06/20 03:38:08;;;;;;;26.30;23.50;;;;;;;15.74;100.00;101477.75;4976566;28;20849;-46
2023/06/20 03:40:35;;;;;;;30.97;25.70;;;;;;;15.81;100.00;101476.69;4976353;28;20489;-47
2023/06/20 03:43:03;;;;;;;53.70;26.20;;;;;;;15.86;100.00;101476.84;4975955;28;20924;-44
2023/06/20 03:45:32;;;;;;;24.87;22.17;;;;;;;15.95;100.00;101475.56;4976341;28;20529;-47
2023/06/20 03:48:00;;;;;;;67.30;28.10;;;;;;;16.00;100.00;101475.78;4976188;28;20442;-46
2023/06/20 03:50:28;;;;;;;1490.23;198.63;;;;;;;16.03;100.00;101478.03;4976215;28;20434;-47
2023/06/20 03:52:55;;;;;;;933.63;170.93;;;;;;;16.09;100.00;101472.84;4975567;28;20493;-45
2023/06/20 03:55:23;;;;;;;1374.73;142.50;;;;;;;16.12;100.00;101484.00;4976464;28;20434;-45
2023/06/20 03:57:51;;;;;;;1896.53;177.10;;;;;;;16.20;100.00;101482.91;4975872;28;20434;-45
2023/06/20 04:00:19;;;;;;;1773.83;212.77;;;;;;;16.25;100.00;101475.81;4975816;28;20510;-45
2023/06/20 04:02:49;;;;;;;1303.47;123.90;;;;;;;16.30;100.00;101472.50;4975657;28;20438;-46
2023/06/20 04:05:17;;;;;;;52.50;34.33;;;;;;;16.37;100.00;101476.78;4975351;28;21091;-45
2023/06/20 04:07:45;;;;;;;53.40;33.60;;;;;;;16.42;100.00;101478.84;4975695;28;20533;-47
2023/06/20 04:10:13;;;;;;;93.13;43.80;;;;;;;16.53;100.00;101488.91;4975624;28;20470;-44
2023/06/20 04:12:42;;;;;;;52.47;35.40;;;;;;;16.57;100.00;101490.19;4975591;28;20435;-45
2023/06/20 04:15:11;;;;;;;105.93;41.10;;;;;;;16.69;100.00;101491.13;4975106;28;20494;-44
2023/06/20 04:17:40;;;;;;;58.40;36.67;;;;;;;16.75;100.00;101501.03;4975841;28;20431;-47
2023/06/20 04:20:12;;;;;;;71.37;37.13;;;;;;;16.76;100.00;101493.75;4975357;28;20900;-44
2023/06/20 04:22:44;;;;;;;59.67;35.43;;;;;;;16.83;100.00;101494.53;4975361;28;20435;-45
2023/06/20 04:25:12;;;;;;;49.90;31.03;;;;;;;16.95;100.00;101495.47;4975077;28;21169;-45
2023/06/20 04:27:40;;;;;;;56.97;35.17;;;;;;;17.13;100.00;101487.44;4969265;28;20545;-46
2023/06/20 04:30:09;;;;;;;58.43;31.57;;;;;;;17.25;100.00;101482.13;4974386;28;20454;-45
2023/06/20 04:32:37;;;;;;;129.20;38.00;;;;;;;17.35;100.00;101482.47;4975496;28;20427;-43
2023/06/20 04:35:10;;;;;;;97.93;30.27;;;;;;;17.44;100.00;101481.94;4974770;28;20521;-45
2023/06/20 04:37:40;;;;;;;117.53;32.70;;;;;;;17.41;100.00;101473.47;4975346;28;20430;-43
2023/06/20 04:40:11;;;;;;;195.77;34.17;;;;;;;17.52;100.00;101481.66;4974955;28;20840;-45
2023/06/20 04:42:38;;;;;;;137.97;28.70;;;;;;;17.41;100.00;101479.69;4975449;28;20431;-45
2023/06/20 04:45:08;;;;;;;95.80;26.23;;;;;;;17.47;100.00;101480.69;4974591;28;20846;-47
2023/06/20 04:47:36;;;;;;;174.70;33.80;;;;;;;17.50;100.00;101489.13;4975431;28;20446;-49
2023/06/20 04:50:05;;;;;;;52.67;23.17;;;;;;;17.45;100.00;101488.97;4975004;28;20478;-46
2023/06/20 04:52:33;;;;;;;174.70;32.23;;;;;;;17.43;100.00;101487.56;4974857;28;20521;-44
2023/06/20 04:55:02;;;;;;;100.73;25.23;;;;;;;17.47;100.00;101494.16;4974525;28;20473;-47
2023/06/20 04:57:31;;;;;;;445.13;57.97;;;;;;;17.47;100.00;101489.56;4975199;28;20438;-49
2023/06/20 04:59:59;;;;;;;711.50;241.37;;;;;;;17.41;100.00;101492.34;4974578;28;20513;-46
2023/06/20 05:02:28;;;;;;;156.40;30.53;;;;;;;17.22;100.00;101493.38;4974580;28;21027;-47
2023/06/20 05:04:55;;;;;;;136.47;29.23;;;;;;;17.13;100.00;101492.81;4974200;28;20470;-46
2023/06/20 05:07:23;;;;;;;91.87;27.07;;;;;;;17.19;100.00;101494.63;4974823;28;20482;-45
2023/06/20 05:09:52;;;;;;;133.50;26.30;;;;;;;17.11;100.00;101492.22;4974631;28;20856;-50
2023/06/20 05:12:21;;;;;;;47.13;23.60;;;;;;;17.23;100.00;101497.72;4974755;28;20849;-43
2023/06/20 05:14:49;;;;;;;110.30;32.50;;;;;;;17.26;100.00;101497.28;4974136;28;21067;-46
2023/06/20 05:17:17;;;;;;;102.30;37.73;;;;;;;17.37;100.00;101493.84;4974838;28;20441;-45
2023/06/20 05:19:44;;;;;;;49.40;26.73;;;;;;;17.41;100.00;101495.06;4974254;28;20482;-45
2023/06/20 05:22:12;;;;;;;104.40;28.50;;;;;;;17.41;100.00;101501.25;4974560;28;20862;-45
2023/06/20 05:24:40;;;;;;;32.63;25.10;;;;;;;17.56;100.00;101504.44;4973843;28;21021;-47
2023/06/20 05:27:08;;;;;;;38.33;23.37;;;;;;;17.63;100.00;101507.06;4974360;28;20466;-43
2023/06/20 05:29:37;;;;;;;37.70;22.27;;;;;;;17.50;100.00;101507.19;4974099;28;20884;-49
2023/06/20 05:32:06;;;;;;;25.03;22.23;;;;;;;17.69;100.00;101511.56;4974222;28;20431;-47
2023/06/20 05:34:34;;;;;;;85.80;27.40;;;;;;;17.73;100.00;101511.94;4973993;28;20470;-45
2023/06/20 05:37:01;;;;;;;34.83;24.40;;;;;;;17.72;100.00;101507.59;4974408;28;20840;-44
2023/06/20 05:39:29;;;;;;;51.97;25.57;;;;;;;17.66;100.00;101506.63;4974210;28;20462;-45
2023/06/20 05:41:57;;;;;;;63.63;24.67;;;;;;;17.59;100.00;101503.19;4974170;28;20458;-44
2023/06/20 05:44:24;;;;;;;39.67;25.87;;;;;;;17.59;100.00;101508.59;4973701;28;20541;-44
2023/06/20 05:46:54;;;;;;;35.57;26.00;;;;;;;17.67;100.00;101508.28;4973992;28;20465;-47
2023/06/20 05:49:22;;;;;;;71.23;27.40;;;;;;;17.67;100.00;101519.06;4973733;28;20466;-44
2023/06/20 05:51:51;;;;;;;28.13;25.30;;;;;;;17.70;100.00;101521.31;4973983;28;20862;-45
2023/06/20 05:54:22;;;;;;;27.70;22.27;;;;;;;17.73;100.00;101522.75;4973603;28;20462;-43
2023/06/20 05:56:50;;;;;;;28.67;25.67;;;;;;;17.79;100.00;101524.53;4973979;28;21097;-45
2023/06/20 05:59:19;;;;;;;41.83;27.90;;;;;;;17.86;100.00;101523.41;4973760;28;20501;-47
2023/06/20 06:01:47;;;;;;;25.53;23.13;;;;;;;17.95;100.00;101532.84;4973684;28;20541;-44
2023/06/20 06:04:16;;;;;;;29.30;22.93;;;;;;;18.03;100.00;101526.34;4973436;28;20633;-45
2023/06/20 06:06:44;;;;;;;26.93;23.93;;;;;;;18.04;100.00;101531.50;4973588;28;20434;-48
2023/06/20 06:09:12;;;;;;;32.87;24.57;;;;;;;18.00;100.00;101534.88;4973473;28;20950;-46
2023/06/20 06:11:40;;;;;;;25.17;22.60;;;;;;;17.90;100.00;101535.41;4973326;28;20489;-46
2023/06/20 06:14:07;;;;;;;24.73;22.20;;;;;;;17.82;100.00;101535.72;4973105;28;20533;-45
2023/06/20 06:16:36;;;;;;;25.97;23.27;;;;;;;17.81;100.00;101544.00;4973608;28;20861;-46
2023/06/20 06:19:04;;;;;;;23.87;21.37;;;;;;;17.64;100.00;101543.78;4973448;28;20546;-45
2023/06/20 06:21:33;;;;;;;23.90;21.50;;;;;;;17.70;100.00;101548.28;4973490;28;20497;-49
2023/06/20 06:24:00;;;;;;;26.67;23.07;;;;;;;17.79;100.00;101540.72;4972989;28;20501;-46
2023/06/20 06:26:28;;;;;;;26.30;23.60;;;;;;;17.85;100.00;101542.53;4973174;28;20517;-45
2023/06/20 06:28:56;;;;;;;25.53;23.07;;;;;;;18.01;100.00;101540.03;4967198;28;20454;-44
2023/06/20 06:31:29;;;;;;;27.20;24.60;;;;;;;18.25;100.00;101543.69;4973326;28;20438;-47
2023/06/20 06:33:59;;;;;;;24.00;21.70;;;;;;;18.45;100.00;101543.44;4972749;28;20988;-46
2023/06/20 06:36:31;;;;;;;26.00;23.50;;;;;;;18.55;100.00;101539.16;4973300;28;20441;-44
2023/06/20 06:39:02;;;;;;;26.17;23.80;;;;;;;18.88;100.00;101546.75;4973006;28;20486;-45
2023/06/20 06:41:31;;;;;;;25.10;22.80;;;;;;;19.20;100.00;101540.00;4973264;28;20865;-47
2023/06/20 06:44:00;;;;;;;24.97;22.80;;;;;;;19.27;100.00;101548.81;4972752;28;20466;-46
2023/06/20 06:46:27;;;;;;;27.37;25.07;;;;;;;19.50;100.00;101533.69;4973399;28;20510;-45
2023/06/20 06:48:55;;;;;;;24.60;22.47;;;;;;;19.65;100.00;101534.84;4973083;28;20834;-45
2023/06/20 06:51:23;;;;;;;22.97;21.00;;;;;;;19.82;100.00;101543.91;4972758;28;20431;-49
2023/06/20 06:53:51;;;;;;;24.33;22.43;;;;;;;20.05;100.00;101532.19;4972275;28;20490;-48
2023/06/20 06:56:20;;;;;;;24.70;22.50;;;;;;;20.19;100.00;101530.84;4972876;28;20434;-47
2023/06/20 06:58:48;;;;;;;25.90;23.50;;;;;;;20.09;100.00;101530.66;4973115;28;21051;-45
2023/06/20 07:01:15;;;;;;;27.27;24.57;;;;;;;20.14;100.00;101538.03;4972823;28;20876;-47
2023/06/20 07:03:43;;;;;;;28.63;25.70;;;;;;;20.63;100.00;101532.00;4971967;28;21019;-46
2023/06/20 07:06:11;;;;;;;27.50;25.23;;;;;;;21.06;100.00;101539.50;4973090;28;20774;-46
2023/06/20 07:08:39;;;;;;;25.53;23.30;;;;;;;21.17;100.00;101533.22;4972753;28;20465;-49
2023/06/20 07:11:07;;;;;;;25.00;22.80;;;;;;;21.50;100.00;101533.16;4972922;28;20439;-44
2023/06/20 07:13:36;;;;;;;27.10;24.87;;;;;;;21.79;100.00;101533.84;4972213;28;20486;-46
2023/06/20 07:16:04;;;;;;;26.57;23.97;;;;;;;21.99;100.00;101528.69;4972930;28;20434;-47
2023/06/20 07:18:32;;;;;;;27.07;24.67;;;;;;;21.79;100.00;101519.44;4972617;28;20466;-46
2023/06/20 07:21:00;;;;;;;25.50;23.00;;;;;;;21.76;100.00;101518.06;4972601;28;20642;-42
2023/06/20 07:23:28;;;;;;;24.30;22.10;;;;;;;21.85;100.00;101516.53;4972235;28;20493;-43
2023/06/20 07:25:55;;;;;;;23.17;20.80;;;;;;;22.05;100.00;101508.66;4972807;28;20435;-42
2023/06/20 07:28:25;;;;;;;25.63;23.50;;;;;;;22.68;100.00;101512.63;4966512;28;20532;-41
2023/06/20 07:30:54;;;;;;;24.33;22.10;;;;;;;23.55;100.00;101504.03;4972407;28;20485;-44
2023/06/20 07:33:21;;;;;;;24.37;22.27;;;;;;;23.61;100.00;101494.81;4971997;28;20551;-46
2023/06/20 07:35:49;;;;;;;23.53;21.40;;;;;;;23.85;100.00;101495.19;4972796;28;20434;-45
2023/06/20 07:38:17;;;;;;;20.40;18.57;;;;;;;24.05;100.00;101487.09;4972698;28;20454;-42
2023/06/20 07:40:46;;;;;;;21.80;19.90;;;;;;;24.69;100.00;101484.78;4972531;28;20983;-43
2023/06/20 07:43:14;;;;;;;19.20;17.70;;;;;;;25.02;100.00;101478.81;4971888;28;20489;-50
2023/06/20 07:45:42;;;;;;;21.90;20.10;;;;;;;25.46;100.00;101481.72;4972475;28;20438;-45
2023/06/20 07:48:11;;;;;;;19.27;17.77;;;;;;;26.12;100.00;101484.19;4972601;28;20461;-49
2023/06/20 07:50:39;;;;;;;18.80;17.30;;;;;;;26.97;100.00;101487.47;4972615;28;20952;-49
2023/06/20 07:53:07;;;;;;;16.23;14.97;;;;;;;27.11;100.00;101486.50;4972002;28;20517;-46
2023/06/20 07:55:35;;;;;;;18.40;16.67;;;;;;;27.12;100.00;101484.59;4972505;28;20434;-46
2023/06/20 07:58:04;;;;;;;15.37;14.03;;;;;;;27.12;97.10;101487.34;4972240;28;20476;-47
2023/06/20 08:00:32;;;;;;;17.20;15.70;;;;;;;27.42;87.75;101501.53;4972821;28;20508;-46
2023/06/20 08:03:00;;;;;;;17.30;15.90;;;;;;;27.36;88.28;101493.63;4971845;28;20442;-47
2023/06/20 08:05:29;;;;;;;17.73;16.37;;;;;;;27.59;81.01;101481.94;4975103;28;20435;-46
2023/06/20 08:07:56;;;;;;;16.57;15.37;;;;;;;27.69;88.20;101487.25;4975844;28;20470;-44
2023/06/20 08:10:24;;;;;;;17.30;16.00;;;;;;;27.80;80.97;101482.50;4975797;28;20434;-45
2023/06/20 08:12:52;;;;;;;15.07;13.67;;;;;;;27.88;84.02;101488.13;4975551;28;20430;-45
2023/06/20 08:15:20;;;;;;;15.57;14.27;;;;;;;27.44;76.33;101490.31;4975662;28;20449;-42
2023/06/20 08:17:47;;;;;;;15.17;14.07;;;;;;;27.30;79.67;101486.59;4975665;28;20542;-50
2023/06/20 08:20:15;;;;;;;14.10;13.00;;;;;;;26.62;75.00;101488.53;4975965;28;20430;-44
2023/06/20 08:22:44;;;;;;;15.03;13.80;;;;;;;26.66;83.30;101484.97;4975481;28;20484;-46
2023/06/20 08:25:12;;;;;;;13.90;12.83;;;;;;;26.82;83.04;101480.22;4975006;28;20513;-47
2023/06/20 08:27:40;;;;;;;14.40;13.20;;;;;;;26.92;85.58;101470.00;4975427;28;20525;-45
2023/06/20 08:30:09;;;;;;;15.27;13.93;;;;;;;26.98;79.65;101472.66;4975378;28;20459;-44
2023/06/20 08:32:39;;;;;;;15.50;14.30;;;;;;;26.84;80.88;101478.81;4975506;28;20491;-44
2023/06/20 08:35:09;;;;;;;16.10;14.80;;;;;;;27.05;84.31;101470.41;4975122;28;20478;-44
2023/06/20 08:37:37;;;;;;;14.50;13.40;;;;;;;27.09;84.06;101471.50;4975313;28;20435;-44
2023/06/20 08:40:12;;;;;;;14.50;13.40;;;;;;;25.81;90.52;101469.88;4975183;28;20999;-45
2023/06/20 08:42:41;;;;;;;15.30;14.00;;;;;;;25.87;97.14;101468.75;4975416;28;20458;-45
2023/06/20 08:45:10;;;;;;;16.90;15.30;;;;;;;26.28;92.64;101466.66;4974823;28;20525;-44
2023/06/20 08:47:37;;;;;;;17.37;15.87;;;;;;;26.44;86.16;101470.91;4975316;28;20433;-48
2023/06/20 08:50:07;;;;;;;15.53;14.13;;;;;;;26.13;90.09;101472.19;4975064;28;20465;-46
2023/06/20 08:52:44;;;;;;;16.27;14.90;;;;;;;25.54;97.33;101480.34;4974734;28;20430;-43
2023/06/20 08:55:15;;;;;;;14.43;13.33;;;;;;;25.40;98.69;101474.63;4974503;28;21011;-48
2023/06/20 08:57:45;;;;;;;16.13;14.80;;;;;;;24.71;100.00;101477.97;4975502;28;20802;-46
2023/06/20 09:00:17;;;;;;;13.70;12.70;;;;;;;25.14;100.00;101475.78;4974967;28;20462;-46
2023/06/20 09:02:45;;;;;;;15.90;14.40;;;;;;;25.21;100.00;101479.03;4974677;28;20473;-45
2023/06/20 09:05:12;;;;;;;15.43;13.97;;;;;;;25.31;100.00;101479.84;4974374;28;20900;-45
2023/06/20 09:07:41;;;;;;;18.00;16.10;;;;;;;25.13;100.00;101471.41;4974911;28;20446;-48
2023/06/20 09:10:10;;;;;;;15.13;13.63;;;;;;;25.15;100.00;101475.50;4974770;28;20450;-47
2023/06/20 09:12:47;;;;;;;14.97;13.60;;;;;;;25.32;100.00;101472.47;4974532;28;20431;-43
2023/06/20 09:15:15;;;;;;;15.37;14.10;;;;;;;25.36;100.00;101475.47;4974550;28;20461;-46
2023/06/20 09:17:44;;;;;;;13.73;12.70;;;;;;;25.35;100.00;101476.56;4974209;28;20470;-48
2023/06/20 09:20:13;;;;;;;16.57;14.90;;;;;;;25.58;100.00;101478.72;4974425;28;20486;-45
2023/06/20 09:22:42;;;;;;;15.83;14.27;;;;;;;25.73;100.00;101478.66;4974183;28;20482;-46
2023/06/20 09:25:11;;;;;;;14.20;12.90;;;;;;;25.58;100.00;101474.06;4973970;28;20474;-43
2023/06/20 09:27:41;;;;;;;14.77;13.57;;;;;;;25.60;100.00;101479.22;4974298;28;20435;-43
2023/06/20 09:30:10;;;;;;;12.20;11.27;;;;;;;25.57;99.57;101477.06;4974373;28;20478;-45
2023/06/20 09:32:40;;;;;;;11.70;10.80;;;;;;;25.59;97.02;101483.91;4974214;28;20462;-43
2023/06/20 09:35:10;;;;;;;13.53;12.13;;;;;;;25.38;100.00;101478.75;4973879;28;21086;-45
2023/06/20 09:37:39;;;;;;;13.13;11.97;;;;;;;25.15;100.00;101472.78;4974314;28;20439;-44
2023/06/20 09:40:09;;;;;;;11.20;10.40;;;;;;;25.11;99.94;101470.88;4973973;28;20454;-43
2023/06/20 09:42:38;;;;;;;10.77;9.90;;;;;;;25.19;98.65;101471.13;4974292;28;20814;-44
2023/06/20 09:45:06;;;;;;;10.60;9.60;;;;;;;25.22;97.33;101456.13;4973823;28;20484;-47
2023/06/20 09:47:37;;;;;;;10.50;9.60;;;;;;;25.25;96.87;101461.84;4974162;28;20525;-44
2023/06/20 09:50:07;;;;;;;8.37;7.87;;;;;;;25.21;95.17;101455.28;4974000;28;21047;-45
2023/06/20 09:52:39;;;;;;;9.63;9.03;;;;;;;25.48;91.53;101463.16;4973799;28;20438;-44
2023/06/20 09:55:11;;;;;;;9.50;9.00;;;;;;;25.70;91.15;101457.34;4973433;28;21085;-48
2023/06/20 09:57:43;;;;;;;9.33;8.63;;;;;;;25.69;89.67;101470.19;4973928;28;20426;-43
2023/06/20 10:00:15;;;;;;;11.17;10.20;;;;;;;25.72;89.61;101450.50;4973876;28;20452;-47
2023/06/20 10:02:46;;;;;;;9.43;8.57;;;;;;;25.71;88.28;101454.34;4973900;28;20458;-45
2023/06/20 10:05:15;;;;;;;9.20;8.60;;;;;;;25.74;89.81;101458.44;4973174;28;20465;-45
2023/06/20 10:07:45;;;;;;;8.53;8.03;;;;;;;25.72;88.53;101461.44;4973531;28;20454;-44
2023/06/20 10:10:14;;;;;;;8.30;7.70;;;;;;;25.70;87.13;101462.81;4973532;28;20477;-43
2023/06/20 10:12:45;;;;;;;8.60;8.00;;;;;;;25.74;86.46;101456.53;4973604;28;20435;-43
2023/06/20 10:15:14;;;;;;;9.37;8.40;;;;;;;26.08;83.95;101458.53;4973033;28;20896;-44
2023/06/20 10:17:44;;;;;;;8.70;8.07;;;;;;;26.04;82.86;101458.28;4973392;28;20554;-45
2023/06/20 10:20:28;;;;;;;8.20;7.50;;;;;;;26.21;77.19;101455.19;4973421;28;20454;-43
2023/06/20 10:22:59;;;;;;;8.83;8.23;;;;;;;26.35;76.96;101454.28;4972878;28;20888;-45
2023/06/20 10:25:28;;;;;;;8.47;7.97;;;;;;;26.69;72.74;101456.22;4973489;28;20466;-48
2023/06/20 10:27:57;;;;;;;7.27;6.80;;;;;;;26.93;70.13;101457.94;4972272;28;20506;-44
2023/06/20 10:30:56;;;;;;;8.13;7.63;;;;;;;27.45;66.04;101462.63;4973194;28;20435;-46
2023/06/20 10:33:25;;;;;;;8.17;7.57;;;;;;;27.07;63.92;101454.50;4972692;28;20802;-46
2023/06/20 10:35:59;;;;;;;6.47;6.07;;;;;;;27.44;60.99;101460.19;4973333;28;20485;-46
2023/06/20 10:38:28;;;;;;;7.40;6.90;;;;;;;27.59;64.45;101459.19;4972979;28;20562;-49
2023/06/20 10:41:09;;;;;;;6.57;6.23;;;;;;;27.83;59.90;101452.56;4973355;28;20434;-46
2023/06/20 10:43:51;;;;;;;5.97;5.50;;;;;;;27.69;58.79;101451.63;4972621;28;20836;-43
2023/06/20 10:46:21;;;;;;;5.80;5.50;;;;;;;27.97;57.13;101458.94;4973364;28;20418;-42
2023/06/20 10:48:49;;;;;;;5.70;5.30;;;;;;;28.24;57.69;101441.03;4971801;28;20461;-46
2023/06/20 10:51:18;;;;;;;6.83;6.20;;;;;;;28.21;55.04;101438.91;4972571;28;20442;-46
2023/06/20 10:53:46;;;;;;;5.90;5.50;;;;;;;28.36;54.51;101441.41;4971721;28;20529;-44
2023/06/20 10:56:27;;;;;;;6.03;5.63;;;;;;;28.08;51.41;101439.63;4972573;28;20782;-47
2023/06/20 10:58:55;;;;;;;6.07;5.67;;;;;;;27.80;51.17;101449.59;4972208;28;20454;-42
2023/06/20 11:01:26;;;;;;;6.37;5.90;;;;;;;27.70;54.01;101447.78;4972300;28;20442;-45
2023/06/20 11:03:54;;;;;;;6.00;5.60;;;;;;;27.80;53.87;101446.84;4972025;28;20475;-49
2023/06/20 11:06:23;;;;;;;5.13;4.87;;;;;;;27.43;50.22;101433.88;4972366;28;20469;-44
2023/06/20 11:08:51;;;;;;;5.00;4.60;;;;;;;27.48;51.00;101444.78;4972152;28;20494;-42
2023/06/20 11:11:31;;;;;;;5.40;5.10;;;;;;;27.51;51.33;101430.50;4972272;28;20497;-46
2023/06/20 11:14:09;;;;;;;5.60;5.00;;;;;;;27.05;49.79;101438.41;4971693;28;20465;-44